Midway, South Carolina
Current Conditions -  °F | °C
As of 2:53 PM on Monday 22 Dec 2014 (Local Time) from KOGB Reporting Station
Overcast Overcast  
Wind Chill: 41°   Ceiling: 500
Heat Index: 45°   Visibility: 10mi
Dew Point: 43°   Wind: 7mph
Humidity: 93%   Direction: 70°ENE
Pressure: 29.96"   Gusts: NA
Location:  33.2349°N, 80.9745°W
Report Text: KOGB 221953Z AUTO 07006KT 10SM OVC005 07/06 A2996 RMK AO2 RAE03B23E42 SLP144 P0000 T00720061
Loading
Personal Weather Stations






























Interactive Weather Map New forecast layout! Learn more

10-Day Weather Forecast

Advertisements
Track Severe Weather on mobile